Juscimeira, Brazil
Current Conditions -  °F | °C
As of 4:00 PM on Tuesday 27 Jan 2015 (Local Time) from SBCY Reporting Station
Broken Clouds Broken Clouds  
Wind Chill: 77°   Ceiling: 10000
Heat Index: 78°   Visibility: 6mi
Dew Point: 72°   Wind: 9mph
Humidity: 83%   Direction: 350°N
Pressure: 29.85"   Gusts: NA
Location:  16.05°S, 54.88°W
Report Text: SBCY 271900Z 35008KT 9999 FEW020 BKN100 25/22 Q1011
Loading
Personal Weather Stations






























Interactive Weather Map New forecast layout! Learn more

10-Day Weather Forecast

Advertisements
Track Severe Weather on mobile